METAR Data
IDs: Format: Raw Decoded Include TAF

Data at: 0936 UTC 25 Mar 2019

KWVI 250853Z AUTO 36003KT 10SM CLR 07/04 A3012 RMK AO2 SLP199 T00670044 58018

KSNS 250853Z AUTO 15007KT 10SM CLR 07/05 A3012 RMK AO2 SLP207 T00720050 58015

KMRY 250854Z AUTO 13004KT 10SM CLR 07/04 A3012 RMK AO2 SLP210 T00720039 58018

KSJC 250853Z AUTO 18006KT 10SM CLR 11/06 A3009 RMK AO2 SLP190 T01110056 58017

KSFO 250856Z 17005KT 10SM FEW120 BKN180 12/03 A3009 RMK AO2 SLP188 T01220033 58018

KHAF 250935Z AUTO 13008KT 10SM BKN050 10/03 A3008 RMK AO2